Time,TemperatureF,DewpointF,PressureIn,WindDirection,WindDirectionDegrees,WindSpeedMPH,WindSpeedGustMPH,Humidity,HourlyPrecipIn,Conditions,Clouds,dailyrainin,SoftwareType,DateUTC
2013-05-25 00:01:00,44.8,41.2,29.96,West,273,3.0,5.0,87,0.00,,---,0.00,VWS V14.01,2013-05-25 04:01:00,
2013-05-25 00:02:00,44.8,41.2,29.96,WSW,252,4.0,5.0,87,0.00,,---,0.00,VWS V14.01,2013-05-25 04:02:00,
2013-05-25 00:07:00,44.8,41.2,29.96,SSE,159,1.0,5.0,87,0.00,,---,0.00,VWS V14.01,2013-05-25 04:07:00,
2013-05-25 00:12:00,44.8,41.5,29.96,NNE,26,2.0,8.0,88,0.00,,---,0.00,VWS V14.01,2013-05-25 04:12:00,
2013-05-25 00:17:00,44.9,41.6,29.96,WNW,297,2.0,8.0,88,0.00,,---,0.00,VWS V14.01,2013-05-25 04:17:00,
2013-05-25 00:22:00,44.9,41.0,29.95,NNW,330,2.0,8.0,86,0.00,,---,0.00,VWS V14.01,2013-05-25 04:22:00,
2013-05-25 00:27:00,44.9,41.3,29.96,West,270,3.0,8.0,87,0.00,,---,0.00,VWS V14.01,2013-05-25 04:27:00,
2013-05-25 00:32:00,45.0,41.4,29.96,East,88,0.0,3.0,87,0.00,,---,0.00,VWS V14.01,2013-05-25 04:32:00,
2013-05-25 00:37:00,45.1,41.8,29.96,ENE,75,2.0,4.0,88,0.00,,---,0.00,VWS V14.01,2013-05-25 04:37:00,
2013-05-25 00:42:00,45.1,41.2,29.95,NNW,339,1.0,8.0,86,0.00,,---,0.00,VWS V14.01,2013-05-25 04:42:00,
2013-05-25 00:47:00,45.1,41.5,29.95,NW,325,4.0,8.0,87,0.00,,---,0.00,VWS V14.01,2013-05-25 04:47:00,
2013-05-25 00:52:00,45.2,41.6,29.95,NNW,340,3.0,8.0,87,0.00,,---,0.00,VWS V14.01,2013-05-25 04:52:00,
2013-05-25 00:57:00,45.2,41.3,29.95,NNE,24,2.0,8.0,86,0.00,,---,0.00,VWS V14.01,2013-05-25 04:57:00,
2013-05-25 01:02:00,45.2,41.3,29.94,NW,304,3.0,3.0,86,0.00,,---,0.00,VWS V14.01,2013-05-25 05:02:00,
2013-05-25 01:07:00,45.1,41.5,29.94,South,172,0.0,4.0,87,0.00,,---,0.00,VWS V14.01,2013-05-25 05:07:00,
2013-05-25 01:12:00,45.0,41.7,29.94,ENE,65,1.0,4.0,88,0.00,,---,0.00,VWS V14.01,2013-05-25 05:12:00,
2013-05-25 01:17:00,44.9,41.9,29.93,NNE,16,1.0,4.0,89,0.00,,---,0.00,VWS V14.01,2013-05-25 05:17:00,
2013-05-25 01:22:00,44.8,41.8,29.93,NNE,31,0.0,4.0,89,0.00,,---,0.00,VWS V14.01,2013-05-25 05:22:00,
2013-05-25 01:27:00,44.9,42.2,29.93,NNW,333,0.0,4.0,90,0.00,,---,0.00,VWS V14.01,2013-05-25 05:27:00,
2013-05-25 01:32:00,44.9,42.2,29.93,ESE,120,0.0,2.0,90,0.00,,---,0.00,VWS V14.01,2013-05-25 05:32:00,
2013-05-25 01:37:00,44.8,42.0,29.93,WNW,298,0.0,6.0,90,0.00,,---,0.00,VWS V14.01,2013-05-25 05:37:00,
2013-05-25 01:42:00,44.8,42.0,29.93,East,89,1.0,6.0,90,0.00,,---,0.00,VWS V14.01,2013-05-25 05:42:00,
2013-05-25 01:47:00,44.9,42.2,29.93,East,94,0.0,6.0,90,0.00,,---,0.00,VWS V14.01,2013-05-25 05:47:00,
2013-05-25 01:52:00,44.9,41.9,29.93,WSW,240,0.0,6.0,89,0.00,,---,0.00,VWS V14.01,2013-05-25 05:52:00,
2013-05-25 01:57:00,44.9,42.4,29.93,SSW,212,0.0,6.0,91,0.00,,---,0.00,VWS V14.01,2013-05-25 05:57:00,
2013-05-25 02:02:00,44.9,41.9,29.93,NW,316,1.0,3.0,89,0.00,,---,0.00,VWS V14.01,2013-05-25 06:02:00,
2013-05-25 02:07:00,45.1,42.6,29.93,North,11,1.0,3.0,91,0.00,,---,0.00,VWS V14.01,2013-05-25 06:07:00,
2013-05-25 02:12:00,44.9,42.2,29.92,ENE,68,1.0,3.0,90,0.01,,---,0.01,VWS V14.01,2013-05-25 06:12:00,
2013-05-25 02:17:00,44.9,42.4,29.93,SE,135,0.0,3.0,91,0.01,,---,0.01,VWS V14.01,2013-05-25 06:17:00,
2013-05-25 02:22:00,44.9,42.7,29.93,NW,326,0.0,3.0,92,0.01,,---,0.01,VWS V14.01,2013-05-25 06:22:00,
2013-05-25 02:27:00,44.9,43.0,29.92,North,352,1.0,3.0,93,0.02,,---,0.02,VWS V14.01,2013-05-25 06:27:00,
2013-05-25 02:32:00,44.7,42.5,29.92,NW,325,2.0,2.0,92,0.02,,---,0.02,VWS V14.01,2013-05-25 06:32:00,
2013-05-25 02:37:00,44.7,42.8,29.92,WNW,298,0.0,3.0,93,0.03,,---,0.03,VWS V14.01,2013-05-25 06:37:00,
2013-05-25 02:42:00,44.7,42.8,29.92,NE,36,1.0,3.0,93,0.03,,---,0.03,VWS V14.01,2013-05-25 06:42:00,
2013-05-25 02:47:00,44.5,42.6,29.92,ENE,71,2.0,3.0,93,0.03,,---,0.03,VWS V14.01,2013-05-25 06:47:00,
2013-05-25 02:52:00,44.4,42.8,29.91,East,101,0.0,3.0,94,0.04,,---,0.04,VWS V14.01,2013-05-25 06:52:00,
2013-05-25 02:57:00,44.3,42.4,29.91,NW,314,4.0,6.0,93,0.04,,---,0.04,VWS V14.01,2013-05-25 06:57:00,
2013-05-25 03:02:00,44.3,42.4,29.91,NE,48,1.0,5.0,93,0.04,,---,0.04,VWS V14.01,2013-05-25 07:02:00,
2013-05-25 03:07:00,44.3,42.7,29.91,NW,323,1.0,5.0,94,0.04,,---,0.04,VWS V14.01,2013-05-25 07:07:00,
2013-05-25 03:12:00,44.3,42.7,29.91,NNW,333,1.0,5.0,94,0.04,,---,0.04,VWS V14.01,2013-05-25 07:12:00,
2013-05-25 03:17:00,44.3,42.4,29.91,SSE,159,0.0,6.0,93,0.05,,---,0.05,VWS V14.01,2013-05-25 07:17:00,
2013-05-25 03:22:00,44.3,42.7,29.91,South,191,0.0,6.0,94,0.05,,---,0.05,VWS V14.01,2013-05-25 07:22:00,
2013-05-25 03:27:00,44.2,42.3,29.91,West,280,0.0,6.0,93,0.05,,---,0.05,VWS V14.01,2013-05-25 07:27:00,
2013-05-25 03:32:00,44.3,42.7,29.91,WSW,258,2.0,3.0,94,0.03,,---,0.05,VWS V14.01,2013-05-25 07:32:00,
2013-05-25 03:37:00,44.3,42.7,29.91,SSW,212,0.0,3.0,94,0.03,,---,0.05,VWS V14.01,2013-05-25 07:37:00,
2013-05-25 03:42:00,44.3,42.7,29.91,ENE,65,1.0,3.0,94,0.03,,---,0.05,VWS V14.01,2013-05-25 07:42:00,
2013-05-25 03:47:00,44.2,42.6,29.91,NE,48,0.0,3.0,94,0.03,,---,0.05,VWS V14.01,2013-05-25 07:47:00,
2013-05-25 03:52:00,44.1,42.5,29.91,NNW,335,2.0,3.0,94,0.03,,---,0.05,VWS V14.01,2013-05-25 07:52:00,
2013-05-25 03:57:00,44.2,42.6,29.91,WNW,287,0.0,8.0,94,0.03,,---,0.05,VWS V14.01,2013-05-25 07:57:00,
2013-05-25 04:02:00,44.2,42.6,29.91,SSE,152,1.0,1.0,94,0.01,,---,0.05,VWS V14.01,2013-05-25 08:02:00,
2013-05-25 04:07:00,44.2,42.6,29.91,North,354,3.0,6.0,94,0.01,,---,0.05,VWS V14.01,2013-05-25 08:07:00,
2013-05-25 04:12:00,44.2,42.6,29.91,ENE,72,3.0,6.0,94,0.01,,---,0.05,VWS V14.01,2013-05-25 08:12:00,
2013-05-25 04:17:00,44.2,42.6,29.91,West,273,1.0,6.0,94,0.01,,---,0.05,VWS V14.01,2013-05-25 08:17:00,
2013-05-25 04:22:00,44.3,43.0,29.91,NNW,338,2.0,6.0,95,0.02,,---,0.06,VWS V14.01,2013-05-25 08:22:00,
2013-05-25 04:27:00,44.3,42.7,29.91,WNW,292,3.0,7.0,94,0.02,,---,0.06,VWS V14.01,2013-05-25 08:27:00,
2013-05-25 04:32:00,44.3,42.7,29.91,NE,46,1.0,2.0,94,0.01,,---,0.06,VWS V14.01,2013-05-25 08:32:00,
2013-05-25 04:37:00,44.3,42.7,29.91,NW,309,3.0,4.0,94,0.01,,---,0.06,VWS V14.01,2013-05-25 08:37:00,
2013-05-25 04:42:00,44.3,42.7,29.91,NE,51,1.0,5.0,94,0.02,,---,0.07,VWS V14.01,2013-05-25 08:42:00,
2013-05-25 04:47:00,44.4,42.8,29.91,North,350,2.0,5.0,94,0.02,,---,0.07,VWS V14.01,2013-05-25 08:47:00,
2013-05-25 04:52:00,44.3,42.7,29.91,NNE,13,2.0,5.0,94,0.02,,---,0.07,VWS V14.01,2013-05-25 08:52:00,
2013-05-25 04:57:00,44.2,42.6,29.91,NW,325,6.0,7.0,94,0.03,,---,0.08,VWS V14.01,2013-05-25 08:57:00,
2013-05-25 05:02:00,44.1,42.5,29.91,North,349,4.0,4.0,94,0.03,,---,0.08,VWS V14.01,2013-05-25 09:02:00,
2013-05-25 05:07:00,44.1,42.8,29.91,NNE,12,0.0,6.0,95,0.04,,---,0.09,VWS V14.01,2013-05-25 09:07:00,
2013-05-25 05:12:00,44.1,42.8,29.91,NE,41,3.0,6.0,95,0.05,,---,0.10,VWS V14.01,2013-05-25 09:12:00,
2013-05-25 05:17:00,44.1,42.8,29.91,NNE,16,0.0,6.0,95,0.06,,---,0.11,VWS V14.01,2013-05-25 09:17:00,
2013-05-25 05:22:00,44.1,43.0,29.91,NW,326,2.0,6.0,96,0.08,,---,0.13,VWS V14.01,2013-05-25 09:22:00,
2013-05-25 05:27:00,44.0,42.7,29.91,North,352,1.0,6.0,95,0.09,,---,0.14,VWS V14.01,2013-05-25 09:27:00,
2013-05-25 05:32:00,44.0,42.7,29.91,WNW,291,3.0,4.0,95,0.09,,---,0.15,VWS V14.01,2013-05-25 09:32:00,
2013-05-25 05:37:00,43.9,42.6,29.92,NW,323,0.0,4.0,95,0.11,,---,0.17,VWS V14.01,2013-05-25 09:37:00,
2013-05-25 05:42:00,44.0,42.7,29.92,NNW,335,2.0,4.0,95,0.13,,---,0.19,VWS V14.01,2013-05-25 09:42:00,
2013-05-25 05:47:00,44.0,42.7,29.92,WNW,292,4.0,6.0,95,0.14,,---,0.20,VWS V14.01,2013-05-25 09:47:00,
2013-05-25 05:52:00,44.0,42.7,29.92,East,88,1.0,6.0,95,0.15,,---,0.21,VWS V14.01,2013-05-25 09:52:00,
2013-05-25 05:57:00,44.0,42.7,29.92,NNW,336,3.0,6.0,95,0.16,,---,0.22,VWS V14.01,2013-05-25 09:57:00,
2013-05-25 06:02:00,44.0,42.7,29.92,WNW,298,5.0,5.0,95,0.14,,---,0.22,VWS V14.01,2013-05-25 10:02:00,
2013-05-25 06:07:00,44.1,42.5,29.92,NNW,347,0.0,7.0,94,0.15,,---,0.23,VWS V14.01,2013-05-25 10:07:00,
2013-05-25 06:12:00,44.1,42.8,29.92,NNW,344,2.0,7.0,95,0.15,,---,0.23,VWS V14.01,2013-05-25 10:12:00,
2013-05-25 06:17:00,44.0,42.4,29.92,NNW,333,1.0,7.0,94,0.16,,---,0.24,VWS V14.01,2013-05-25 10:17:00,
2013-05-25 06:22:00,44.1,42.8,29.92,North,5,2.0,7.0,95,0.16,,---,0.24,VWS V14.01,2013-05-25 10:22:00,
2013-05-25 06:27:00,44.1,42.8,29.92,WNW,300,2.0,7.0,95,0.16,,---,0.24,VWS V14.01,2013-05-25 10:27:00,
2013-05-25 06:32:00,44.1,42.8,29.93,NW,319,2.0,3.0,95,0.09,,---,0.24,VWS V14.01,2013-05-25 10:32:00,
2013-05-25 06:37:00,44.1,42.8,29.93,East,80,0.0,5.0,95,0.10,,---,0.25,VWS V14.01,2013-05-25 10:37:00,
2013-05-25 06:42:00,44.1,42.8,29.93,SSW,195,0.0,5.0,95,0.10,,---,0.25,VWS V14.01,2013-05-25 10:42:00,
2013-05-25 06:47:00,44.1,42.8,29.93,NNE,18,2.0,5.0,95,0.10,,---,0.25,VWS V14.01,2013-05-25 10:47:00,
2013-05-25 06:52:00,44.1,42.8,29.93,NNW,346,2.0,5.0,95,0.10,,---,0.25,VWS V14.01,2013-05-25 10:52:00,
2013-05-25 06:57:00,44.1,42.8,29.93,North,8,2.0,5.0,95,0.10,,---,0.25,VWS V14.01,2013-05-25 10:57:00,
2013-05-25 07:02:00,44.2,42.9,29.93,ESE,120,0.0,2.0,95,0.03,,---,0.25,VWS V14.01,2013-05-25 11:02:00,
2013-05-25 07:07:00,44.3,43.0,29.93,WNW,284,0.0,2.0,95,0.03,,---,0.25,VWS V14.01,2013-05-25 11:07:00,
2013-05-25 07:12:00,44.4,43.1,29.93,NE,43,1.0,3.0,95,0.03,,---,0.25,VWS V14.01,2013-05-25 11:12:00,
2013-05-25 07:17:00,44.4,42.8,29.93,North,4,2.0,7.0,94,0.03,,---,0.25,VWS V14.01,2013-05-25 11:17:00,
2013-05-25 07:22:00,44.5,42.9,29.93,NW,305,4.0,8.0,94,0.03,,---,0.25,VWS V14.01,2013-05-25 11:22:00,
2013-05-25 07:27:00,44.7,43.1,29.93,NE,55,1.0,8.0,94,0.03,,---,0.25,VWS V14.01,2013-05-25 11:27:00,
2013-05-25 07:32:00,44.8,42.9,29.93,NNW,343,1.0,4.0,93,0.01,,---,0.25,VWS V14.01,2013-05-25 11:32:00,
2013-05-25 07:37:00,44.8,43.2,29.93,WNW,282,2.0,4.0,94,0.01,,---,0.25,VWS V14.01,2013-05-25 11:37:00,
2013-05-25 07:42:00,44.9,43.0,29.93,NW,315,0.0,8.0,93,0.01,,---,0.25,VWS V14.01,2013-05-25 11:42:00,
2013-05-25 07:47:00,44.9,42.7,29.93,NNW,333,2.0,8.0,92,0.01,,---,0.25,VWS V14.01,2013-05-25 11:47:00,
2013-05-25 07:52:00,45.0,42.8,29.93,NNE,23,2.0,9.0,92,0.01,,---,0.25,VWS V14.01,2013-05-25 11:52:00,
2013-05-25 07:57:00,45.1,43.2,29.93,NE,56,2.0,9.0,93,0.01,,---,0.25,VWS V14.01,2013-05-25 11:57:00,
2013-05-25 08:02:00,45.2,42.7,29.93,WNW,288,5.0,5.0,91,0.00,,---,0.25,VWS V14.01,2013-05-25 12:02:00,
2013-05-25 08:07:00,45.3,43.1,29.93,WNW,301,3.0,5.0,92,0.00,,---,0.25,VWS V14.01,2013-05-25 12:07:00,
2013-05-25 08:12:00,45.4,42.9,29.93,WNW,293,2.0,7.0,91,0.00,,---,0.25,VWS V14.01,2013-05-25 12:12:00,
2013-05-25 08:17:00,45.6,43.1,29.93,North,9,2.0,7.0,91,0.00,,---,0.25,VWS V14.01,2013-05-25 12:17:00,
2013-05-25 08:22:00,45.8,43.6,29.93,NW,322,1.0,7.0,92,0.00,,---,0.25,VWS V14.01,2013-05-25 12:22:00,
2013-05-25 08:27:00,46.1,43.9,29.93,North,355,1.0,7.0,92,0.00,,---,0.25,VWS V14.01,2013-05-25 12:27:00,
2013-05-25 08:32:00,46.3,43.8,29.93,NW,309,2.0,3.0,91,0.00,,---,0.25,VWS V14.01,2013-05-25 12:32:00,
2013-05-25 08:37:00,46.6,43.8,29.93,North,1,1.0,5.0,90,0.00,,---,0.25,VWS V14.01,2013-05-25 12:37:00,
2013-05-25 08:42:00,47.0,44.5,29.93,WNW,294,4.0,6.0,91,0.00,,---,0.25,VWS V14.01,2013-05-25 12:42:00,
2013-05-25 08:47:00,47.3,44.2,29.93,NE,42,1.0,6.0,89,0.00,,---,0.25,VWS V14.01,2013-05-25 12:47:00,
2013-05-25 08:52:00,47.6,43.9,29.93,NE,46,4.0,6.0,87,0.00,,---,0.25,VWS V14.01,2013-05-25 12:52:00,
2013-05-25 08:57:00,47.9,43.9,29.93,North,6,1.0,6.0,86,0.00,,---,0.25,VWS V14.01,2013-05-25 12:57:00,
2013-05-25 09:02:00,48.2,44.8,29.94,West,262,2.0,6.0,88,0.00,,---,0.25,VWS V14.01,2013-05-25 13:02:00,
2013-05-25 09:07:00,48.3,44.3,29.94,WNW,290,3.0,6.0,86,0.00,,---,0.25,VWS V14.01,2013-05-25 13:07:00,
2013-05-25 09:12:00,48.3,43.7,29.93,NNE,20,3.0,6.0,84,0.00,,---,0.25,VWS V14.01,2013-05-25 13:12:00,
2013-05-25 09:17:00,48.3,43.7,29.93,NNW,343,4.0,7.0,84,0.00,,---,0.25,VWS V14.01,2013-05-25 13:17:00,
2013-05-25 09:22:00,48.3,44.0,29.93,NW,315,2.0,9.0,85,0.00,,---,0.25,VWS V14.01,2013-05-25 13:22:00,
2013-05-25 09:27:00,48.2,43.9,29.93,East,98,2.0,9.0,85,0.00,,---,0.25,VWS V14.01,2013-05-25 13:27:00,
2013-05-25 09:32:00,48.2,43.6,29.93,NW,325,4.0,6.0,84,0.00,,---,0.25,VWS V14.01,2013-05-25 13:32:00,
2013-05-25 09:37:00,48.3,43.4,29.93,North,9,3.0,8.0,83,0.00,,---,0.25,VWS V14.01,2013-05-25 13:37:00,
2013-05-25 09:42:00,48.3,43.7,29.93,WNW,291,4.0,9.0,84,0.00,,---,0.25,VWS V14.01,2013-05-25 13:42:00,
2013-05-25 09:47:00,48.3,43.7,29.93,NW,318,2.0,9.0,84,0.00,,---,0.25,VWS V14.01,2013-05-25 13:47:00,
2013-05-25 09:52:00,48.3,43.4,29.93,NW,312,2.0,13.0,83,0.00,,---,0.25,VWS V14.01,2013-05-25 13:52:00,
2013-05-25 09:57:00,48.2,43.3,29.93,West,273,3.0,13.0,83,0.00,,---,0.25,VWS V14.01,2013-05-25 13:57:00,
2013-05-25 10:02:00,48.2,43.6,29.93,West,277,2.0,4.0,84,0.00,,---,0.25,VWS V14.01,2013-05-25 14:02:00,
2013-05-25 10:07:00,48.3,43.7,29.93,WNW,302,2.0,7.0,84,0.00,,---,0.25,VWS V14.01,2013-05-25 14:07:00,
2013-05-25 10:12:00,48.5,44.2,29.93,WNW,292,3.0,7.0,85,0.00,,---,0.25,VWS V14.01,2013-05-25 14:12:00,
2013-05-25 10:17:00,48.7,44.4,29.93,NW,307,0.0,9.0,85,0.00,,---,0.25,VWS V14.01,2013-05-25 14:17:00,
2013-05-25 10:22:00,48.9,44.0,29.93,NW,319,6.0,10.0,83,0.00,,---,0.25,VWS V14.01,2013-05-25 14:22:00,
2013-05-25 10:27:00,49.1,44.2,29.93,NW,305,6.0,10.0,83,0.00,,---,0.25,VWS V14.01,2013-05-25 14:27:00,
2013-05-25 10:32:00,49.2,44.3,29.93,WNW,295,2.0,5.0,83,0.00,,---,0.25,VWS V14.01,2013-05-25 14:32:00,
2013-05-25 10:37:00,49.2,44.3,29.93,WNW,297,4.0,6.0,83,0.00,,---,0.25,VWS V14.01,2013-05-25 14:37:00,
2013-05-25 10:42:00,49.2,44.3,29.93,NW,325,1.0,9.0,83,0.00,,---,0.25,VWS V14.01,2013-05-25 14:42:00,
2013-05-25 10:47:00,49.2,44.3,29.93,North,352,2.0,10.0,83,0.00,,---,0.25,VWS V14.01,2013-05-25 14:47:00,
2013-05-25 10:52:00,49.1,45.1,29.93,WSW,255,4.0,10.0,86,0.00,,---,0.25,VWS V14.01,2013-05-25 14:52:00,
2013-05-25 10:57:00,48.9,44.9,29.93,SE,134,2.0,10.0,86,0.01,,---,0.26,VWS V14.01,2013-05-25 14:57:00,
2013-05-25 11:02:00,48.7,44.4,29.93,WNW,292,4.0,7.0,85,0.01,,---,0.26,VWS V14.01,2013-05-25 15:02:00,
2013-05-25 11:07:00,48.5,44.2,29.94,NNE,20,2.0,7.0,85,0.01,,---,0.26,VWS V14.01,2013-05-25 15:07:00,
2013-05-25 11:12:00,48.3,44.3,29.94,North,349,1.0,7.0,86,0.01,,---,0.26,VWS V14.01,2013-05-25 15:12:00,
2013-05-25 11:17:00,48.2,44.5,29.94,NNW,330,5.0,7.0,87,0.01,,---,0.26,VWS V14.01,2013-05-25 15:17:00,
2013-05-25 11:22:00,48.2,44.5,29.94,WSW,240,1.0,7.0,87,0.01,,---,0.26,VWS V14.01,2013-05-25 15:22:00,
2013-05-25 11:27:00,48.3,44.6,29.94,West,266,2.0,7.0,87,0.01,,---,0.26,VWS V14.01,2013-05-25 15:27:00,
2013-05-25 11:32:00,48.3,44.3,29.94,WNW,293,5.0,8.0,86,0.01,,---,0.26,VWS V14.01,2013-05-25 15:32:00,
2013-05-25 11:37:00,48.2,44.8,29.94,West,267,7.0,8.0,88,0.02,,---,0.27,VWS V14.01,2013-05-25 15:37:00,
2013-05-25 11:42:00,48.2,44.8,29.94,NW,313,4.0,9.0,88,0.02,,---,0.27,VWS V14.01,2013-05-25 15:42:00,
2013-05-25 11:47:00,48.1,45.0,29.93,West,280,1.0,9.0,89,0.02,,---,0.27,VWS V14.01,2013-05-25 15:47:00,
2013-05-25 11:52:00,48.2,45.1,29.94,NW,304,2.0,9.0,89,0.02,,---,0.27,VWS V14.01,2013-05-25 15:52:00,
2013-05-25 11:57:00,48.1,44.7,29.94,NNW,328,4.0,9.0,88,0.02,,---,0.27,VWS V14.01,2013-05-25 15:57:00,
2013-05-25 12:02:00,48.1,44.7,29.94,NW,326,1.0,2.0,88,0.01,,---,0.27,VWS V14.01,2013-05-25 16:02:00,
2013-05-25 12:07:00,48.1,45.3,29.94,NNW,341,4.0,4.0,90,0.02,,---,0.28,VWS V14.01,2013-05-25 16:07:00,
2013-05-25 12:12:00,47.9,44.8,29.94,WNW,300,7.0,7.0,89,0.02,,---,0.28,VWS V14.01,2013-05-25 16:12:00,
2013-05-25 12:17:00,48.0,44.9,29.94,West,280,2.0,7.0,89,0.02,,---,0.28,VWS V14.01,2013-05-25 16:17:00,
2013-05-25 12:22:00,48.0,44.9,29.95,NW,304,2.0,7.0,89,0.02,,---,0.28,VWS V14.01,2013-05-25 16:22:00,
2013-05-25 12:27:00,48.0,44.9,29.95,NE,55,1.0,7.0,89,0.02,,---,0.28,VWS V14.01,2013-05-25 16:27:00,
2013-05-25 12:32:00,48.1,45.0,29.95,WNW,284,0.0,3.0,89,0.02,,---,0.28,VWS V14.01,2013-05-25 16:32:00,
2013-05-25 12:37:00,48.1,44.7,29.95,WNW,282,4.0,6.0,88,0.03,,---,0.29,VWS V14.01,2013-05-25 16:37:00,
2013-05-25 12:42:00,48.3,44.9,29.95,NNW,347,2.0,6.0,88,0.03,,---,0.29,VWS V14.01,2013-05-25 16:42:00,
2013-05-25 12:47:00,48.2,44.8,29.95,NNE,22,2.0,6.0,88,0.03,,---,0.29,VWS V14.01,2013-05-25 16:47:00,
2013-05-25 12:52:00,48.2,45.1,29.95,WNW,288,3.0,10.0,89,0.03,,---,0.29,VWS V14.01,2013-05-25 16:52:00,
2013-05-25 12:57:00,48.3,45.2,29.95,NNE,29,4.0,10.0,89,0.03,,---,0.29,VWS V14.01,2013-05-25 16:57:00,
2013-05-25 13:02:00,48.3,45.2,29.95,NNE,18,1.0,2.0,89,0.02,,---,0.29,VWS V14.01,2013-05-25 17:02:00,
2013-05-25 13:07:00,48.5,45.4,29.95,SSW,208,3.0,4.0,89,0.02,,---,0.29,VWS V14.01,2013-05-25 17:07:00,
2013-05-25 13:12:00,48.5,45.1,29.95,NW,316,2.0,8.0,88,0.02,,---,0.29,VWS V14.01,2013-05-25 17:12:00,
2013-05-25 13:17:00,48.6,45.2,29.94,WNW,295,3.0,8.0,88,0.03,,---,0.30,VWS V14.01,2013-05-25 17:17:00,
2013-05-25 13:22:00,48.6,44.9,29.94,NE,51,4.0,8.0,87,0.03,,---,0.30,VWS V14.01,2013-05-25 17:22:00,
2013-05-25 13:27:00,48.5,44.5,29.94,NNW,328,5.0,8.0,86,0.03,,---,0.30,VWS V14.01,2013-05-25 17:27:00,
2013-05-25 13:32:00,48.7,44.7,29.94,NW,319,3.0,4.0,86,0.02,,---,0.30,VWS V14.01,2013-05-25 17:32:00,
2013-05-25 13:37:00,48.8,45.1,29.94,NNE,30,1.0,6.0,87,0.02,,---,0.30,VWS V14.01,2013-05-25 17:37:00,
2013-05-25 13:42:00,49.0,45.0,29.94,NNE,22,1.0,6.0,86,0.02,,---,0.30,VWS V14.01,2013-05-25 17:42:00,
2013-05-25 13:47:00,49.3,44.4,29.94,NNW,327,9.0,10.0,83,0.02,,---,0.30,VWS V14.01,2013-05-25 17:47:00,
2013-05-25 13:52:00,49.6,44.7,29.94,NW,305,4.0,11.0,83,0.02,,---,0.30,VWS V14.01,2013-05-25 17:52:00,
2013-05-25 13:57:00,49.7,43.5,29.94,WNW,291,5.0,15.0,79,0.02,,---,0.30,VWS V14.01,2013-05-25 17:57:00,
2013-05-25 14:02:00,49.6,44.0,29.94,WSW,245,3.0,4.0,81,0.01,,---,0.30,VWS V14.01,2013-05-25 18:02:00,
2013-05-25 14:07:00,49.6,44.7,29.94,ENE,63,2.0,6.0,83,0.01,,---,0.30,VWS V14.01,2013-05-25 18:07:00,
2013-05-25 14:12:00,49.5,43.9,29.95,SE,139,2.0,6.0,81,0.02,,---,0.31,VWS V14.01,2013-05-25 18:12:00,
2013-05-25 14:17:00,49.3,44.0,29.94,NNE,13,1.0,15.0,82,0.02,,---,0.31,VWS V14.01,2013-05-25 18:17:00,
2013-05-25 14:22:00,49.1,43.5,29.94,North,10,6.0,15.0,81,0.02,,---,0.31,VWS V14.01,2013-05-25 18:22:00,
2013-05-25 14:27:00,49.0,44.4,29.95,NNW,344,2.0,15.0,84,0.03,,---,0.32,VWS V14.01,2013-05-25 18:27:00,
2013-05-25 14:32:00,49.0,45.3,29.95,NNE,19,3.0,3.0,87,0.02,,---,0.32,VWS V14.01,2013-05-25 18:32:00,
2013-05-25 14:37:00,49.1,44.5,29.95,North,4,1.0,11.0,84,0.02,,---,0.32,VWS V14.01,2013-05-25 18:37:00,
2013-05-25 14:42:00,49.1,44.5,29.95,WNW,292,6.0,11.0,84,0.02,,---,0.32,VWS V14.01,2013-05-25 18:42:00,
2013-05-25 14:47:00,49.3,44.7,29.95,NE,51,2.0,11.0,84,0.03,,---,0.33,VWS V14.01,2013-05-25 18:47:00,
2013-05-25 14:52:00,49.3,45.0,29.95,NW,321,1.0,11.0,85,0.03,,---,0.33,VWS V14.01,2013-05-25 18:52:00,
2013-05-25 14:57:00,49.4,45.1,29.95,West,264,0.0,11.0,85,0.03,,---,0.33,VWS V14.01,2013-05-25 18:57:00,
2013-05-25 15:02:00,49.5,44.2,29.95,NNE,16,3.0,5.0,82,0.03,,---,0.33,VWS V14.01,2013-05-25 19:02:00,
2013-05-25 15:07:00,49.6,44.3,29.95,NE,37,2.0,7.0,82,0.03,,---,0.33,VWS V14.01,2013-05-25 19:07:00,
2013-05-25 15:12:00,49.6,43.7,29.95,NNW,335,4.0,10.0,80,0.03,,---,0.33,VWS V14.01,2013-05-25 19:12:00,
2013-05-25 15:17:00,49.7,44.4,29.95,West,267,1.0,10.0,82,0.03,,---,0.33,VWS V14.01,2013-05-25 19:17:00,
2013-05-25 15:22:00,49.9,43.0,29.95,NNW,346,3.0,13.0,77,0.03,,---,0.33,VWS V14.01,2013-05-25 19:22:00,
2013-05-25 15:27:00,50.0,43.1,29.95,West,277,2.0,13.0,77,0.03,,---,0.33,VWS V14.01,2013-05-25 19:27:00,
2013-05-25 15:32:00,50.1,44.2,29.95,NNE,27,3.0,4.0,80,0.01,,---,0.33,VWS V14.01,2013-05-25 19:32:00,
2013-05-25 15:37:00,50.4,43.5,29.95,WNW,295,4.0,9.0,77,0.01,,---,0.33,VWS V14.01,2013-05-25 19:37:00,
2013-05-25 15:42:00,50.7,43.8,29.95,NE,49,1.0,9.0,77,0.01,,---,0.33,VWS V14.01,2013-05-25 19:42:00,
2013-05-25 15:47:00,50.9,44.3,29.95,SE,146,2.0,9.0,78,0.01,,---,0.33,VWS V14.01,2013-05-25 19:47:00,
2013-05-25 15:52:00,50.8,43.2,29.95,NNE,19,3.0,10.0,75,0.01,,---,0.33,VWS V14.01,2013-05-25 19:52:00,
2013-05-25 15:57:00,50.8,43.5,29.95,ESE,115,1.0,10.0,76,0.02,,---,0.34,VWS V14.01,2013-05-25 19:57:00,
2013-05-25 16:02:00,50.5,43.6,29.96,NW,325,10.0,10.0,77,0.01,,---,0.34,VWS V14.01,2013-05-25 20:02:00,
2013-05-25 16:07:00,50.0,43.8,29.96,NNW,343,3.0,18.0,79,0.01,,---,0.34,VWS V14.01,2013-05-25 20:07:00,
2013-05-25 16:12:00,49.6,43.7,29.96,NW,320,4.0,18.0,80,0.01,,---,0.34,VWS V14.01,2013-05-25 20:12:00,
2013-05-25 16:17:00,49.5,44.2,29.95,NE,37,1.0,18.0,82,0.02,,---,0.35,VWS V14.01,2013-05-25 20:17:00,
2013-05-25 16:22:00,49.5,43.9,29.95,West,277,6.0,18.0,81,0.02,,---,0.35,VWS V14.01,2013-05-25 20:22:00,
2013-05-25 16:27:00,49.8,44.5,29.96,WNW,282,2.0,18.0,82,0.02,,---,0.35,VWS V14.01,2013-05-25 20:27:00,
2013-05-25 16:32:00,49.9,44.3,29.96,NNE,27,5.0,17.0,81,0.02,,---,0.35,VWS V14.01,2013-05-25 20:32:00,
2013-05-25 16:37:00,49.3,43.7,29.96,North,350,10.0,17.0,81,0.02,,---,0.35,VWS V14.01,2013-05-25 20:37:00,
2013-05-25 16:42:00,49.0,43.1,29.96,NNW,345,8.0,17.0,80,0.03,,---,0.36,VWS V14.01,2013-05-25 20:42:00,
2013-05-25 16:47:00,49.0,43.1,29.97,WNW,291,7.0,17.0,80,0.03,,---,0.36,VWS V14.01,2013-05-25 20:47:00,
2013-05-25 16:52:00,49.1,43.2,29.97,NW,313,4.0,17.0,80,0.03,,---,0.36,VWS V14.01,2013-05-25 20:52:00,
2013-05-25 16:57:00,49.1,43.5,29.97,NNW,328,3.0,17.0,81,0.03,,---,0.36,VWS V14.01,2013-05-25 20:57:00,
2013-05-25 17:02:00,48.8,43.9,29.97,WNW,286,1.0,4.0,83,0.02,,---,0.36,VWS V14.01,2013-05-25 21:02:00,
2013-05-25 17:07:00,48.6,44.0,29.98,NNW,335,7.0,7.0,84,0.03,,---,0.37,VWS V14.01,2013-05-25 21:07:00,
2013-05-25 17:12:00,48.4,44.1,29.97,WNW,287,1.0,8.0,85,0.03,,---,0.37,VWS V14.01,2013-05-25 21:12:00,
2013-05-25 17:17:00,48.4,44.7,29.97,NW,314,4.0,8.0,87,0.03,,---,0.37,VWS V14.01,2013-05-25 21:17:00,
2013-05-25 17:22:00,48.8,44.2,29.97,WSW,253,2.0,9.0,84,0.03,,---,0.37,VWS V14.01,2013-05-25 21:22:00,
2013-05-25 17:27:00,49.0,44.4,29.97,ENE,59,0.0,9.0,84,0.03,,---,0.37,VWS V14.01,2013-05-25 21:27:00,
2013-05-25 17:32:00,49.2,43.6,29.97,NW,325,2.0,3.0,81,0.02,,---,0.37,VWS V14.01,2013-05-25 21:32:00,
2013-05-25 17:37:00,49.6,43.7,29.97,West,276,0.0,3.0,80,0.02,,---,0.37,VWS V14.01,2013-05-25 21:37:00,
2013-05-25 17:42:00,50.2,44.0,29.97,West,275,6.0,6.0,79,0.02,,---,0.37,VWS V14.01,2013-05-25 21:42:00,
2013-05-25 17:47:00,50.8,43.5,29.97,WNW,292,4.0,14.0,76,0.02,,---,0.37,VWS V14.01,2013-05-25 21:47:00,
2013-05-25 17:52:00,50.9,42.9,29.97,NNE,31,2.0,14.0,74,0.02,,---,0.37,VWS V14.01,2013-05-25 21:52:00,
2013-05-25 17:57:00,50.8,42.5,29.98,WNW,284,9.0,14.0,73,0.02,,---,0.37,VWS V14.01,2013-05-25 21:57:00,
2013-05-25 18:02:00,50.6,42.6,29.98,NNE,18,2.0,5.0,74,0.01,,---,0.37,VWS V14.01,2013-05-25 22:02:00,
2013-05-25 18:07:00,50.5,43.2,29.98,NNE,22,2.0,6.0,76,0.01,,---,0.37,VWS V14.01,2013-05-25 22:07:00,
2013-05-25 18:12:00,50.3,42.0,29.99,WNW,291,7.0,7.0,73,0.01,,---,0.37,VWS V14.01,2013-05-25 22:12:00,
2013-05-25 18:17:00,50.1,42.2,29.98,NW,326,3.0,8.0,74,0.01,,---,0.37,VWS V14.01,2013-05-25 22:17:00,
2013-05-25 18:22:00,50.0,41.7,29.99,NNW,340,3.0,11.0,73,0.01,,---,0.37,VWS V14.01,2013-05-25 22:22:00,
2013-05-25 18:27:00,50.1,41.8,29.99,SE,125,2.0,11.0,73,0.01,,---,0.37,VWS V14.01,2013-05-25 22:27:00,
2013-05-25 18:32:00,50.1,41.8,29.99,East,80,2.0,4.0,73,0.00,,---,0.37,VWS V14.01,2013-05-25 22:32:00,
2013-05-25 18:37:00,50.1,41.4,29.99,North,11,4.0,7.0,72,0.00,,---,0.37,VWS V14.01,2013-05-25 22:37:00,
2013-05-25 18:42:00,50.1,42.2,29.99,WNW,290,2.0,7.0,74,0.00,,---,0.37,VWS V14.01,2013-05-25 22:42:00,
2013-05-25 18:47:00,50.2,41.5,29.99,NW,314,4.0,11.0,72,0.00,,---,0.37,VWS V14.01,2013-05-25 22:47:00,
2013-05-25 18:52:00,50.3,42.0,29.99,NE,49,3.0,11.0,73,0.00,,---,0.37,VWS V14.01,2013-05-25 22:52:00,
2013-05-25 18:57:00,50.2,40.8,29.99,NNE,32,3.0,11.0,70,0.00,,---,0.37,VWS V14.01,2013-05-25 22:57:00,
2013-05-25 19:02:00,50.3,41.6,30.00,North,358,1.0,3.0,72,0.00,,---,0.37,VWS V14.01,2013-05-25 23:02:00,
2013-05-25 19:07:00,50.3,41.3,30.00,North,358,2.0,10.0,71,0.00,,---,0.37,VWS V14.01,2013-05-25 23:07:00,
2013-05-25 19:12:00,50.3,40.9,30.00,SW,236,2.0,10.0,70,0.00,,---,0.37,VWS V14.01,2013-05-25 23:12:00,
2013-05-25 19:17:00,50.4,40.6,30.00,ESE,103,1.0,11.0,69,0.00,,---,0.37,VWS V14.01,2013-05-25 23:17:00,
2013-05-25 19:22:00,50.4,41.4,30.00,North,1,0.0,11.0,71,0.00,,---,0.37,VWS V14.01,2013-05-25 23:22:00,
2013-05-25 19:27:00,50.2,41.5,30.00,West,280,3.0,11.0,72,0.00,,---,0.37,VWS V14.01,2013-05-25 23:27:00,
2013-05-25 19:32:00,50.1,40.7,30.00,SE,141,1.0,3.0,70,0.00,,---,0.37,VWS V14.01,2013-05-25 23:32:00,
2013-05-25 19:37:00,50.3,40.2,30.00,West,275,3.0,9.0,68,0.00,,---,0.37,VWS V14.01,2013-05-25 23:37:00,
2013-05-25 19:42:00,50.4,40.2,30.00,SW,217,4.0,9.0,68,0.00,,---,0.37,VWS V14.01,2013-05-25 23:42:00,
2013-05-25 19:47:00,50.5,40.0,30.00,NNE,25,2.0,9.0,67,0.00,,---,0.37,VWS V14.01,2013-05-25 23:47:00,
2013-05-25 19:52:00,50.6,39.7,30.00,NNE,16,4.0,9.0,66,0.00,,---,0.37,VWS V14.01,2013-05-25 23:52:00,
2013-05-25 19:57:00,50.7,39.4,30.00,NNW,343,4.0,10.0,65,0.00,,---,0.37,VWS V14.01,2013-05-25 23:57:00,
2013-05-25 20:02:00,50.7,40.2,30.01,ENE,68,1.0,4.0,67,0.00,,---,0.37,VWS V14.01,2013-05-26 00:02:00,
2013-05-25 20:07:00,50.7,39.4,30.01,WNW,292,9.0,9.0,65,0.00,,---,0.37,VWS V14.01,2013-05-26 00:07:00,
2013-05-25 20:12:00,50.7,39.4,30.00,NW,305,5.0,12.0,65,0.00,,---,0.37,VWS V14.01,2013-05-26 00:12:00,
2013-05-25 20:17:00,50.7,39.8,30.01,NW,309,2.0,12.0,66,0.00,,---,0.37,VWS V14.01,2013-05-26 00:17:00,
2013-05-25 20:22:00,50.6,40.1,30.01,NW,309,4.0,13.0,67,0.00,,---,0.37,VWS V14.01,2013-05-26 00:22:00,
2013-05-25 20:27:00,50.5,39.6,30.01,NNW,333,3.0,13.0,66,0.00,,---,0.37,VWS V14.01,2013-05-26 00:27:00,
2013-05-25 20:32:00,50.4,40.2,30.01,ENE,72,5.0,5.0,68,0.00,,---,0.37,VWS V14.01,2013-05-26 00:32:00,
2013-05-25 20:37:00,50.4,39.9,30.01,NNE,27,7.0,7.0,67,0.00,,---,0.37,VWS V14.01,2013-05-26 00:37:00,
2013-05-25 20:42:00,50.4,39.9,30.01,NW,326,2.0,10.0,67,0.00,,---,0.37,VWS V14.01,2013-05-26 00:42:00,
2013-05-25 20:47:00,50.3,39.8,30.01,SW,214,3.0,10.0,67,0.00,,---,0.37,VWS V14.01,2013-05-26 00:47:00,
2013-05-25 20:52:00,50.3,39.8,30.01,West,273,7.0,15.0,67,0.00,,---,0.37,VWS V14.01,2013-05-26 00:52:00,
2013-05-25 20:57:00,50.3,39.4,30.01,NNW,328,4.0,15.0,66,0.00,,---,0.37,VWS V14.01,2013-05-26 00:57:00,
2013-05-25 21:02:00,50.2,39.7,30.01,WNW,295,2.0,8.0,67,0.00,,---,0.37,VWS V14.01,2013-05-26 01:02:00,
2013-05-25 21:07:00,50.0,39.9,30.01,NNE,13,2.0,11.0,68,0.00,,---,0.37,VWS V14.01,2013-05-26 01:07:00,
2013-05-25 21:12:00,49.9,39.8,30.01,NNE,21,5.0,11.0,68,0.00,,---,0.37,VWS V14.01,2013-05-26 01:12:00,
2013-05-25 21:17:00,49.8,40.0,30.02,NNW,335,3.0,11.0,69,0.00,,---,0.37,VWS V14.01,2013-05-26 01:17:00,
2013-05-25 21:22:00,49.7,40.3,30.02,NW,319,4.0,11.0,70,0.00,,---,0.37,VWS V14.01,2013-05-26 01:22:00,
2013-05-25 21:27:00,49.6,39.5,30.02,WNW,292,4.0,11.0,68,0.00,,---,0.37,VWS V14.01,2013-05-26 01:27:00,
2013-05-25 21:32:00,49.6,39.5,30.02,NW,323,4.0,7.0,68,0.00,,---,0.37,VWS V14.01,2013-05-26 01:32:00,
2013-05-25 21:37:00,49.6,39.9,30.02,WNW,302,1.0,7.0,69,0.00,,---,0.37,VWS V14.01,2013-05-26 01:37:00,
2013-05-25 21:42:00,49.5,39.8,30.02,NW,309,3.0,8.0,69,0.00,,---,0.37,VWS V14.01,2013-05-26 01:42:00,
2013-05-25 21:47:00,49.4,40.0,30.02,East,91,5.0,8.0,70,0.00,,---,0.37,VWS V14.01,2013-05-26 01:47:00,
2013-05-25 21:52:00,49.3,39.9,30.02,NE,37,2.0,8.0,70,0.00,,---,0.37,VWS V14.01,2013-05-26 01:52:00,
2013-05-25 21:57:00,49.2,40.2,30.03,West,281,4.0,8.0,71,0.00,,---,0.37,VWS V14.01,2013-05-26 01:57:00,
2013-05-25 22:02:00,48.9,40.6,30.02,NNE,33,1.0,3.0,73,0.00,,---,0.37,VWS V14.01,2013-05-26 02:02:00,
2013-05-25 22:07:00,48.6,40.3,30.02,WNW,282,3.0,9.0,73,0.00,,---,0.37,VWS V14.01,2013-05-26 02:07:00,
2013-05-25 22:12:00,48.4,40.5,30.02,West,270,5.0,9.0,74,0.00,,---,0.37,VWS V14.01,2013-05-26 02:12:00,
2013-05-25 22:17:00,48.4,40.5,30.02,NW,312,4.0,9.0,74,0.00,,---,0.37,VWS V14.01,2013-05-26 02:17:00,
2013-05-25 22:22:00,48.3,40.8,30.02,NE,51,1.0,9.0,75,0.00,,---,0.37,VWS V14.01,2013-05-26 02:22:00,
2013-05-25 22:27:00,48.3,40.4,30.02,West,259,2.0,10.0,74,0.00,,---,0.37,VWS V14.01,2013-05-26 02:27:00,
2013-05-25 22:32:00,48.3,40.4,30.02,WSW,256,2.0,6.0,74,0.00,,---,0.37,VWS V14.01,2013-05-26 02:32:00,
2013-05-25 22:37:00,48.2,40.7,30.02,NW,326,2.0,6.0,75,0.00,,---,0.37,VWS V14.01,2013-05-26 02:37:00,
2013-05-25 22:42:00,48.1,40.2,30.02,NW,316,2.0,6.0,74,0.00,,---,0.37,VWS V14.01,2013-05-26 02:42:00,
2013-05-25 22:47:00,48.1,40.2,30.02,NNE,15,0.0,6.0,74,0.00,,---,0.37,VWS V14.01,2013-05-26 02:47:00,
2013-05-25 22:52:00,48.0,40.1,30.02,WNW,297,2.0,6.0,74,0.00,,---,0.37,VWS V14.01,2013-05-26 02:52:00,
2013-05-25 22:57:00,48.0,40.5,30.02,SE,141,1.0,6.0,75,0.00,,---,0.37,VWS V14.01,2013-05-26 02:57:00,
2013-05-25 23:02:00,48.0,40.1,30.02,NNW,343,6.0,7.0,74,0.00,,---,0.37,VWS V14.01,2013-05-26 03:02:00,
2013-05-25 23:07:00,47.9,40.0,30.02,NW,312,1.0,7.0,74,0.00,,---,0.37,VWS V14.01,2013-05-26 03:07:00,
2013-05-25 23:12:00,47.9,40.4,30.02,NNW,335,5.0,7.0,75,0.00,,---,0.37,VWS V14.01,2013-05-26 03:12:00,
2013-05-25 23:17:00,47.9,40.4,30.01,North,4,6.0,7.0,75,0.00,,---,0.37,VWS V14.01,2013-05-26 03:17:00,
2013-05-25 23:22:00,47.9,40.0,30.01,NW,315,6.0,7.0,74,0.00,,---,0.37,VWS V14.01,2013-05-26 03:22:00,
2013-05-25 23:27:00,47.8,39.9,30.01,WNW,288,3.0,11.0,74,0.00,,---,0.37,VWS V14.01,2013-05-26 03:27:00,
2013-05-25 23:32:00,47.7,39.5,30.01,North,349,2.0,7.0,73,0.00,,---,0.37,VWS V14.01,2013-05-26 03:32:00,
2013-05-25 23:36:00,47.6,39.0,30.01,NNW,347,2.0,7.0,72,0.00,,---,0.37,VWS V14.01,2013-05-26 03:36:00,
2013-05-25 23:42:00,47.6,39.4,30.00,West,276,2.0,10.0,73,0.00,,---,0.37,VWS V14.01,2013-05-26 03:42:00,
2013-05-25 23:46:00,47.6,39.0,30.01,North,5,5.0,14.0,72,0.00,,---,0.37,VWS V14.01,2013-05-26 03:46:00,
2013-05-25 23:52:00,47.5,39.3,30.00,NW,309,4.0,14.0,73,0.00,,---,0.37,VWS V14.01,2013-05-26 03:52:00,
2013-05-25 23:57:00,47.4,39.5,30.00,West,269,8.0,14.0,74,0.00,,---,0.37,VWS V14.01,2013-05-26 03:57:00,